sensor_id;sensor_type;location;lat;lon;timestamp;temperature;humidity
32446;DHT22;18899;50.748;7.102;2023-03-25T00:00:03;11.00;99.90
32446;DHT22;18899;50.748;7.102;2023-03-25T00:02:35;11.00;99.90
32446;DHT22;18899;50.748;7.102;2023-03-25T00:05:02;10.80;99.90
32446;DHT22;18899;50.748;7.102;2023-03-25T00:07:29;10.80;99.90
32446;DHT22;18899;50.748;7.102;2023-03-25T00:09:55;10.80;99.90
32446;DHT22;18899;50.748;7.102;2023-03-25T00:12:21;10.90;99.90
32446;DHT22;18899;50.748;7.102;2023-03-25T00:14:46;10.80;99.90
32446;DHT22;18899;50.748;7.102;2023-03-25T00:17:23;10.80;99.90
32446;DHT22;18899;50.748;7.102;2023-03-25T00:19:54;10.70;99.90
32446;DHT22;18899;50.748;7.102;2023-03-25T00:22:20;10.60;99.90
32446;DHT22;18899;50.748;7.102;2023-03-25T00:24:46;10.60;99.90
32446;DHT22;18899;50.748;7.102;2023-03-25T00:27:12;10.40;99.90
32446;DHT22;18899;50.748;7.102;2023-03-25T00:29:39;10.40;99.90
32446;DHT22;18899;50.748;7.102;2023-03-25T00:32:05;10.30;99.90
32446;DHT22;18899;50.748;7.102;2023-03-25T00:34:31;10.40;99.90
32446;DHT22;18899;50.748;7.102;2023-03-25T00:37:00;10.40;99.90
32446;DHT22;18899;50.748;7.102;2023-03-25T00:39:27;10.40;99.90
32446;DHT22;18899;50.748;7.102;2023-03-25T00:41:52;10.50;99.90
32446;DHT22;18899;50.748;7.102;2023-03-25T00:44:18;10.60;99.90
32446;DHT22;18899;50.748;7.102;2023-03-25T00:46:44;10.70;99.90
32446;DHT22;18899;50.748;7.102;2023-03-25T00:49:10;10.80;99.90
32446;DHT22;18899;50.748;7.102;2023-03-25T00:51:36;10.80;99.90
32446;DHT22;18899;50.748;7.102;2023-03-25T00:54:02;10.90;99.90
32446;DHT22;18899;50.748;7.102;2023-03-25T00:56:29;11.00;99.90
32446;DHT22;18899;50.748;7.102;2023-03-25T00:58:55;11.00;99.90
32446;DHT22;18899;50.748;7.102;2023-03-25T01:01:23;11.10;99.90
32446;DHT22;18899;50.748;7.102;2023-03-25T01:03:56;11.00;99.90
32446;DHT22;18899;50.748;7.102;2023-03-25T01:06:24;10.90;99.90
32446;DHT22;18899;50.748;7.102;2023-03-25T01:08:53;10.90;99.90
32446;DHT22;18899;50.748;7.102;2023-03-25T01:11:30;10.80;99.90
32446;DHT22;18899;50.748;7.102;2023-03-25T01:13:59;10.70;99.90
32446;DHT22;18899;50.748;7.102;2023-03-25T01:16:26;10.60;99.90
32446;DHT22;18899;50.748;7.102;2023-03-25T01:18:52;10.50;99.90
32446;DHT22;18899;50.748;7.102;2023-03-25T01:21:18;10.60;99.90
32446;DHT22;18899;50.748;7.102;2023-03-25T01:23:43;10.60;99.90
32446;DHT22;18899;50.748;7.102;2023-03-25T01:26:09;10.70;99.90
32446;DHT22;18899;50.748;7.102;2023-03-25T01:28:37;10.80;99.90
32446;DHT22;18899;50.748;7.102;2023-03-25T01:31:05;10.80;99.90
32446;DHT22;18899;50.748;7.102;2023-03-25T01:33:31;10.80;99.90
32446;DHT22;18899;50.748;7.102;2023-03-25T01:35:58;10.90;99.90
32446;DHT22;18899;50.748;7.102;2023-03-25T01:38:24;10.90;99.90
32446;DHT22;18899;50.748;7.102;2023-03-25T01:40:51;11.00;99.90
32446;DHT22;18899;50.748;7.102;2023-03-25T01:43:17;10.90;99.90
32446;DHT22;18899;50.748;7.102;2023-03-25T01:45:43;10.90;99.90
32446;DHT22;18899;50.748;7.102;2023-03-25T01:48:22;11.00;99.90
32446;DHT22;18899;50.748;7.102;2023-03-25T01:50:57;11.00;99.90
32446;DHT22;18899;50.748;7.102;2023-03-25T01:53:27;11.00;99.90
32446;DHT22;18899;50.748;7.102;2023-03-25T01:55:54;11.00;99.90
32446;DHT22;18899;50.748;7.102;2023-03-25T01:58:21;10.90;99.90
32446;DHT22;18899;50.748;7.102;2023-03-25T02:00:49;11.00;99.90
32446;DHT22;18899;50.748;7.102;2023-03-25T02:03:17;11.00;99.90
32446;DHT22;18899;50.748;7.102;2023-03-25T02:05:55;10.90;99.90
32446;DHT22;18899;50.748;7.102;2023-03-25T02:08:24;10.90;99.90
32446;DHT22;18899;50.748;7.102;2023-03-25T02:10:51;10.90;99.90
32446;DHT22;18899;50.748;7.102;2023-03-25T02:13:18;10.90;99.90
32446;DHT22;18899;50.748;7.102;2023-03-25T02:21:14;10.80;99.90
32446;DHT22;18899;50.748;7.102;2023-03-25T02:27:26;10.80;99.90
32446;DHT22;18899;50.748;7.102;2023-03-25T02:30:24;10.80;99.90
32446;DHT22;18899;50.748;7.102;2023-03-25T02:37:05;11.00;99.90
32446;DHT22;18899;50.748;7.102;2023-03-25T02:39:47;10.80;99.90
32446;DHT22;18899;50.748;7.102;2023-03-25T02:42:30;10.80;99.90
32446;DHT22;18899;50.748;7.102;2023-03-25T02:45:24;10.70;99.90
32446;DHT22;18899;50.748;7.102;2023-03-25T02:47:59;10.70;99.90
32446;DHT22;18899;50.748;7.102;2023-03-25T02:50:30;10.60;99.90
32446;DHT22;18899;50.748;7.102;2023-03-25T02:52:59;10.60;99.90
32446;DHT22;18899;50.748;7.102;2023-03-25T02:55:27;10.50;99.90
32446;DHT22;18899;50.748;7.102;2023-03-25T02:57:55;10.50;99.90
32446;DHT22;18899;50.748;7.102;2023-03-25T03:00:27;10.50;99.90
32446;DHT22;18899;50.748;7.102;2023-03-25T03:05:32;10.50;99.90
32446;DHT22;18899;50.748;7.102;2023-03-25T03:10:55;10.50;99.90
32446;DHT22;18899;50.748;7.102;2023-03-25T03:13:39;10.60;99.90
32446;DHT22;18899;50.748;7.102;2023-03-25T03:16:36;10.60;99.90
32446;DHT22;18899;50.748;7.102;2023-03-25T03:21:53;10.70;99.90
32446;DHT22;18899;50.748;7.102;2023-03-25T03:24:31;10.60;99.90
32446;DHT22;18899;50.748;7.102;2023-03-25T03:27:10;10.60;99.90
32446;DHT22;18899;50.748;7.102;2023-03-25T03:29:44;10.70;99.90
32446;DHT22;18899;50.748;7.102;2023-03-25T03:34:47;10.60;99.90
32446;DHT22;18899;50.748;7.102;2023-03-25T03:37:17;10.70;99.90
32446;DHT22;18899;50.748;7.102;2023-03-25T03:39:46;10.70;99.90
32446;DHT22;18899;50.748;7.102;2023-03-25T03:42:21;10.80;99.90
32446;DHT22;18899;50.748;7.102;2023-03-25T03:44:52;10.70;99.90
32446;DHT22;18899;50.748;7.102;2023-03-25T03:47:23;10.70;99.90
32446;DHT22;18899;50.748;7.102;2023-03-25T03:49:54;10.70;99.90
32446;DHT22;18899;50.748;7.102;2023-03-25T03:52:26;10.70;99.90
32446;DHT22;18899;50.748;7.102;2023-03-25T03:55:00;10.60;99.90
32446;DHT22;18899;50.748;7.102;2023-03-25T03:57:31;10.50;99.90
32446;DHT22;18899;50.748;7.102;2023-03-25T04:02:39;10.40;99.90
32446;DHT22;18899;50.748;7.102;2023-03-25T04:05:11;10.40;99.90
32446;DHT22;18899;50.748;7.102;2023-03-25T04:10:25;10.30;99.90
32446;DHT22;18899;50.748;7.102;2023-03-25T04:12:54;10.30;99.90
32446;DHT22;18899;50.748;7.102;2023-03-25T04:15:21;10.30;99.90
32446;DHT22;18899;50.748;7.102;2023-03-25T04:17:47;10.30;99.90
32446;DHT22;18899;50.748;7.102;2023-03-25T04:20:14;10.30;99.90
32446;DHT22;18899;50.748;7.102;2023-03-25T04:22:40;10.40;99.90
32446;DHT22;18899;50.748;7.102;2023-03-25T04:25:10;10.30;99.90
32446;DHT22;18899;50.748;7.102;2023-03-25T04:27:36;10.30;99.90
32446;DHT22;18899;50.748;7.102;2023-03-25T04:30:06;10.20;99.90
32446;DHT22;18899;50.748;7.102;2023-03-25T04:32:33;10.30;99.90
32446;DHT22;18899;50.748;7.102;2023-03-25T04:34:59;10.30;99.90
32446;DHT22;18899;50.748;7.102;2023-03-25T04:37:28;10.40;99.90
32446;DHT22;18899;50.748;7.102;2023-03-25T04:39:53;10.30;99.90
32446;DHT22;18899;50.748;7.102;2023-03-25T04:42:24;10.40;99.90
32446;DHT22;18899;50.748;7.102;2023-03-25T04:44:57;10.40;99.90
32446;DHT22;18899;50.748;7.102;2023-03-25T04:47:24;10.20;99.90
32446;DHT22;18899;50.748;7.102;2023-03-25T04:49:50;10.20;99.90
32446;DHT22;18899;50.748;7.102;2023-03-25T04:52:15;10.20;99.90
32446;DHT22;18899;50.748;7.102;2023-03-25T04:54:42;10.20;99.90
32446;DHT22;18899;50.748;7.102;2023-03-25T04:57:09;10.20;99.90
32446;DHT22;18899;50.748;7.102;2023-03-25T04:59:35;10.30;99.90
32446;DHT22;18899;50.748;7.102;2023-03-25T05:02:01;10.40;99.90
32446;DHT22;18899;50.748;7.102;2023-03-25T05:04:27;10.30;99.90
32446;DHT22;18899;50.748;7.102;2023-03-25T05:06:53;10.30;99.90
32446;DHT22;18899;50.748;7.102;2023-03-25T05:09:21;10.30;99.90
32446;DHT22;18899;50.748;7.102;2023-03-25T05:11:47;10.40;99.90
32446;DHT22;18899;50.748;7.102;2023-03-25T05:14:16;10.30;99.90
32446;DHT22;18899;50.748;7.102;2023-03-25T05:16:42;10.30;99.90
32446;DHT22;18899;50.748;7.102;2023-03-25T05:19:08;10.20;99.90
32446;DHT22;18899;50.748;7.102;2023-03-25T05:21:35;10.10;99.90
32446;DHT22;18899;50.748;7.102;2023-03-25T05:24:06;10.10;99.90
32446;DHT22;18899;50.748;7.102;2023-03-25T05:26:33;10.10;99.90
32446;DHT22;18899;50.748;7.102;2023-03-25T05:29:03;10.10;99.90
32446;DHT22;18899;50.748;7.102;2023-03-25T05:31:29;10.10;99.90
32446;DHT22;18899;50.748;7.102;2023-03-25T05:33:55;10.20;99.90
32446;DHT22;18899;50.748;7.102;2023-03-25T05:36:21;10.10;99.90
32446;DHT22;18899;50.748;7.102;2023-03-25T05:38:49;10.20;99.90
32446;DHT22;18899;50.748;7.102;2023-03-25T05:41:15;10.10;99.90
32446;DHT22;18899;50.748;7.102;2023-03-25T05:43:44;10.20;99.90
32446;DHT22;18899;50.748;7.102;2023-03-25T05:46:11;10.30;99.90
32446;DHT22;18899;50.748;7.102;2023-03-25T05:48:36;10.30;99.90
32446;DHT22;18899;50.748;7.102;2023-03-25T05:51:03;10.30;99.90
32446;DHT22;18899;50.748;7.102;2023-03-25T05:53:30;10.40;99.90
32446;DHT22;18899;50.748;7.102;2023-03-25T05:55:58;10.40;99.90
32446;DHT22;18899;50.748;7.102;2023-03-25T05:58:24;10.40;99.90
32446;DHT22;18899;50.748;7.102;2023-03-25T06:00:50;10.40;99.90
32446;DHT22;18899;50.748;7.102;2023-03-25T06:03:17;10.30;99.90
32446;DHT22;18899;50.748;7.102;2023-03-25T06:05:45;10.30;99.90
32446;DHT22;18899;50.748;7.102;2023-03-25T06:08:11;10.40;99.90
32446;DHT22;18899;50.748;7.102;2023-03-25T06:10:36;10.50;99.90
32446;DHT22;18899;50.748;7.102;2023-03-25T06:13:03;10.70;99.90
32446;DHT22;18899;50.748;7.102;2023-03-25T06:15:28;10.80;99.90
32446;DHT22;18899;50.748;7.102;2023-03-25T06:17:58;10.80;99.90
32446;DHT22;18899;50.748;7.102;2023-03-25T06:20:24;10.90;99.90
32446;DHT22;18899;50.748;7.102;2023-03-25T06:22:49;10.80;99.90
32446;DHT22;18899;50.748;7.102;2023-03-25T06:25:17;10.80;99.90
32446;DHT22;18899;50.748;7.102;2023-03-25T06:27:45;10.80;99.90
32446;DHT22;18899;50.748;7.102;2023-03-25T06:30:14;11.00;99.90
32446;DHT22;18899;50.748;7.102;2023-03-25T06:32:40;11.50;99.90
32446;DHT22;18899;50.748;7.102;2023-03-25T06:35:07;11.70;99.90
32446;DHT22;18899;50.748;7.102;2023-03-25T06:37:34;11.90;99.90
32446;DHT22;18899;50.748;7.102;2023-03-25T06:40:00;12.20;99.90
32446;DHT22;18899;50.748;7.102;2023-03-25T06:42:26;12.40;99.90
32446;DHT22;18899;50.748;7.102;2023-03-25T06:44:52;12.40;99.90
32446;DHT22;18899;50.748;7.102;2023-03-25T06:47:18;12.60;99.90
32446;DHT22;18899;50.748;7.102;2023-03-25T06:49:44;12.80;99.90
32446;DHT22;18899;50.748;7.102;2023-03-25T06:52:10;12.90;99.90
32446;DHT22;18899;50.748;7.102;2023-03-25T06:54:37;12.90;99.90
32446;DHT22;18899;50.748;7.102;2023-03-25T06:57:03;12.70;99.90
32446;DHT22;18899;50.748;7.102;2023-03-25T06:59:28;12.50;99.90
32446;DHT22;18899;50.748;7.102;2023-03-25T07:01:54;12.30;99.90
32446;DHT22;18899;50.748;7.102;2023-03-25T07:04:19;12.10;99.90
32446;DHT22;18899;50.748;7.102;2023-03-25T07:06:45;11.90;99.90
32446;DHT22;18899;50.748;7.102;2023-03-25T07:09:10;11.90;99.90
32446;DHT22;18899;50.748;7.102;2023-03-25T07:11:36;11.70;99.90
32446;DHT22;18899;50.748;7.102;2023-03-25T07:14:02;11.60;99.90
32446;DHT22;18899;50.748;7.102;2023-03-25T07:16:27;11.20;99.90
32446;DHT22;18899;50.748;7.102;2023-03-25T07:18:53;10.80;99.90
32446;DHT22;18899;50.748;7.102;2023-03-25T07:21:21;10.60;99.90
32446;DHT22;18899;50.748;7.102;2023-03-25T07:23:47;10.40;99.90
32446;DHT22;18899;50.748;7.102;2023-03-25T07:26:12;10.50;99.90
32446;DHT22;18899;50.748;7.102;2023-03-25T07:28:38;10.50;99.90
32446;DHT22;18899;50.748;7.102;2023-03-25T07:31:10;10.40;99.90
32446;DHT22;18899;50.748;7.102;2023-03-25T07:33:36;10.30;99.90
32446;DHT22;18899;50.748;7.102;2023-03-25T07:36:03;10.30;99.90
32446;DHT22;18899;50.748;7.102;2023-03-25T07:38:28;10.30;99.90
32446;DHT22;18899;50.748;7.102;2023-03-25T07:40:54;10.50;99.90
32446;DHT22;18899;50.748;7.102;2023-03-25T07:43:19;10.50;99.90
32446;DHT22;18899;50.748;7.102;2023-03-25T07:45:45;10.40;99.90
32446;DHT22;18899;50.748;7.102;2023-03-25T07:48:10;10.40;99.90
32446;DHT22;18899;50.748;7.102;2023-03-25T07:50:39;10.30;99.90
32446;DHT22;18899;50.748;7.102;2023-03-25T07:53:04;10.40;99.90
32446;DHT22;18899;50.748;7.102;2023-03-25T07:55:30;10.40;99.90
32446;DHT22;18899;50.748;7.102;2023-03-25T07:57:56;10.30;99.90
32446;DHT22;18899;50.748;7.102;2023-03-25T08:00:23;10.30;99.90
32446;DHT22;18899;50.748;7.102;2023-03-25T08:02:48;10.30;99.90
32446;DHT22;18899;50.748;7.102;2023-03-25T08:05:14;10.50;99.90
32446;DHT22;18899;50.748;7.102;2023-03-25T08:07:46;10.50;99.90
32446;DHT22;18899;50.748;7.102;2023-03-25T08:10:12;10.50;99.90
32446;DHT22;18899;50.748;7.102;2023-03-25T08:12:42;10.40;99.90
32446;DHT22;18899;50.748;7.102;2023-03-25T08:15:08;10.30;99.90
32446;DHT22;18899;50.748;7.102;2023-03-25T08:17:36;10.20;99.90
32446;DHT22;18899;50.748;7.102;2023-03-25T08:20:02;10.20;99.90
32446;DHT22;18899;50.748;7.102;2023-03-25T08:22:29;10.30;99.90
32446;DHT22;18899;50.748;7.102;2023-03-25T08:24:55;10.50;99.90
32446;DHT22;18899;50.748;7.102;2023-03-25T08:27:21;10.70;99.90
32446;DHT22;18899;50.748;7.102;2023-03-25T08:29:46;10.90;99.90
32446;DHT22;18899;50.748;7.102;2023-03-25T08:32:24;11.10;99.90
32446;DHT22;18899;50.748;7.102;2023-03-25T08:34:51;11.50;99.90
32446;DHT22;18899;50.748;7.102;2023-03-25T08:37:17;13.60;99.90
32446;DHT22;18899;50.748;7.102;2023-03-25T08:39:42;16.10;96.30
32446;DHT22;18899;50.748;7.102;2023-03-25T08:42:11;18.10;83.50
32446;DHT22;18899;50.748;7.102;2023-03-25T08:44:37;19.80;69.80
32446;DHT22;18899;50.748;7.102;2023-03-25T08:47:02;20.90;63.20
32446;DHT22;18899;50.748;7.102;2023-03-25T08:49:28;21.90;58.20
32446;DHT22;18899;50.748;7.102;2023-03-25T08:51:54;21.50;57.80
32446;DHT22;18899;50.748;7.102;2023-03-25T08:54:22;21.80;57.70
32446;DHT22;18899;50.748;7.102;2023-03-25T08:56:48;21.40;57.00
32446;DHT22;18899;50.748;7.102;2023-03-25T08:59:13;20.20;58.70
32446;DHT22;18899;50.748;7.102;2023-03-25T09:01:39;19.30;61.70
32446;DHT22;18899;50.748;7.102;2023-03-25T09:04:04;18.60;64.60
32446;DHT22;18899;50.748;7.102;2023-03-25T09:06:30;18.20;66.90
32446;DHT22;18899;50.748;7.102;2023-03-25T09:08:55;17.70;68.40
32446;DHT22;18899;50.748;7.102;2023-03-25T09:11:21;17.00;71.50
32446;DHT22;18899;50.748;7.102;2023-03-25T09:13:47;16.40;74.50
32446;DHT22;18899;50.748;7.102;2023-03-25T09:16:12;15.90;76.50
32446;DHT22;18899;50.748;7.102;2023-03-25T09:18:38;15.20;79.30
32446;DHT22;18899;50.748;7.102;2023-03-25T09:21:03;15.00;82.30
32446;DHT22;18899;50.748;7.102;2023-03-25T09:23:29;14.80;83.10
32446;DHT22;18899;50.748;7.102;2023-03-25T09:26:00;14.70;85.10
32446;DHT22;18899;50.748;7.102;2023-03-25T09:28:27;14.50;85.80
32446;DHT22;18899;50.748;7.102;2023-03-25T09:30:53;14.50;89.50
32446;DHT22;18899;50.748;7.102;2023-03-25T09:33:19;14.70;88.50
32446;DHT22;18899;50.748;7.102;2023-03-25T09:35:45;14.80;88.00
32446;DHT22;18899;50.748;7.102;2023-03-25T09:38:11;14.90;90.40
32446;DHT22;18899;50.748;7.102;2023-03-25T09:40:40;15.00;86.80
32446;DHT22;18899;50.748;7.102;2023-03-25T09:45:52;15.30;85.60
32446;DHT22;18899;50.748;7.102;2023-03-25T09:48:37;15.30;82.30
32446;DHT22;18899;50.748;7.102;2023-03-25T09:53:48;15.00;84.10
32446;DHT22;18899;50.748;7.102;2023-03-25T09:56:17;14.60;86.70
32446;DHT22;18899;50.748;7.102;2023-03-25T09:58:50;14.50;86.30
32446;DHT22;18899;50.748;7.102;2023-03-25T10:04:22;14.40;89.10
32446;DHT22;18899;50.748;7.102;2023-03-25T10:07:05;14.30;89.20
32446;DHT22;18899;50.748;7.102;2023-03-25T10:12:31;14.50;90.70
32446;DHT22;18899;50.748;7.102;2023-03-25T10:18:39;15.40;85.10
32446;DHT22;18899;50.748;7.102;2023-03-25T10:21:18;15.70;84.20
32446;DHT22;18899;50.748;7.102;2023-03-25T10:27:21;15.70;83.30
32446;DHT22;18899;50.748;7.102;2023-03-25T10:30:20;14.90;90.40
32446;DHT22;18899;50.748;7.102;2023-03-25T10:32:48;14.60;91.40
32446;DHT22;18899;50.748;7.102;2023-03-25T10:35:21;14.60;92.60
32446;DHT22;18899;50.748;7.102;2023-03-25T10:37:51;14.70;92.40
32446;DHT22;18899;50.748;7.102;2023-03-25T10:45:33;15.30;94.10
32446;DHT22;18899;50.748;7.102;2023-03-25T10:50:42;15.80;93.10
32446;DHT22;18899;50.748;7.102;2023-03-25T10:53:21;16.20;91.40
32446;DHT22;18899;50.748;7.102;2023-03-25T10:55:53;16.50;84.00
32446;DHT22;18899;50.748;7.102;2023-03-25T10:58:19;16.30;81.90
32446;DHT22;18899;50.748;7.102;2023-03-25T11:00:46;16.50;81.60
32446;DHT22;18899;50.748;7.102;2023-03-25T11:03:19;16.90;80.50
32446;DHT22;18899;50.748;7.102;2023-03-25T11:05:47;16.80;77.20
32446;DHT22;18899;50.748;7.102;2023-03-25T11:08:13;16.80;76.50
32446;DHT22;18899;50.748;7.102;2023-03-25T11:10:39;16.50;79.50
32446;DHT22;18899;50.748;7.102;2023-03-25T11:13:11;16.70;78.80
32446;DHT22;18899;50.748;7.102;2023-03-25T11:15:38;16.70;79.20
32446;DHT22;18899;50.748;7.102;2023-03-25T11:18:15;16.50;77.40
32446;DHT22;18899;50.748;7.102;2023-03-25T11:20:52;16.30;77.30
32446;DHT22;18899;50.748;7.102;2023-03-25T11:23:33;16.00;80.80
32446;DHT22;18899;50.748;7.102;2023-03-25T11:26:26;15.90;80.40
32446;DHT22;18899;50.748;7.102;2023-03-25T11:28:59;15.60;81.40
32446;DHT22;18899;50.748;7.102;2023-03-25T11:31:26;15.60;81.50
32446;DHT22;18899;50.748;7.102;2023-03-25T11:41:48;15.70;80.10
32446;DHT22;18899;50.748;7.102;2023-03-25T11:44:30;15.80;78.20
32446;DHT22;18899;50.748;7.102;2023-03-25T11:47:00;15.90;78.90
32446;DHT22;18899;50.748;7.102;2023-03-25T11:49:28;15.90;79.20
32446;DHT22;18899;50.748;7.102;2023-03-25T11:52:23;16.00;79.00
32446;DHT22;18899;50.748;7.102;2023-03-25T11:54:52;16.10;77.70
32446;DHT22;18899;50.748;7.102;2023-03-25T11:57:26;16.20;79.30
32446;DHT22;18899;50.748;7.102;2023-03-25T12:00:05;16.60;77.60
32446;DHT22;18899;50.748;7.102;2023-03-25T12:02:38;16.70;76.70
32446;DHT22;18899;50.748;7.102;2023-03-25T12:07:44;16.70;75.30
32446;DHT22;18899;50.748;7.102;2023-03-25T12:10:34;16.70;75.10
32446;DHT22;18899;50.748;7.102;2023-03-25T12:16:18;16.10;74.20
32446;DHT22;18899;50.748;7.102;2023-03-25T12:21:56;16.10;77.20
32446;DHT22;18899;50.748;7.102;2023-03-25T12:30:09;16.00;80.30
32446;DHT22;18899;50.748;7.102;2023-03-25T12:38:17;15.20;82.20
32446;DHT22;18899;50.748;7.102;2023-03-25T12:47:02;15.40;82.10
32446;DHT22;18899;50.748;7.102;2023-03-25T12:52:34;15.70;80.40
32446;DHT22;18899;50.748;7.102;2023-03-25T13:00:34;16.20;77.30
32446;DHT22;18899;50.748;7.102;2023-03-25T13:08:34;16.30;77.40
32446;DHT22;18899;50.748;7.102;2023-03-25T13:11:24;16.30;75.30
32446;DHT22;18899;50.748;7.102;2023-03-25T13:13:55;16.20;75.10
32446;DHT22;18899;50.748;7.102;2023-03-25T13:16:23;16.10;76.20
32446;DHT22;18899;50.748;7.102;2023-03-25T13:19:02;16.00;76.80
32446;DHT22;18899;50.748;7.102;2023-03-25T13:21:46;15.60;74.20
32446;DHT22;18899;50.748;7.102;2023-03-25T13:24:33;15.40;75.20
32446;DHT22;18899;50.748;7.102;2023-03-25T13:27:01;15.70;72.70
32446;DHT22;18899;50.748;7.102;2023-03-25T13:29:40;15.90;72.00
32446;DHT22;18899;50.748;7.102;2023-03-25T13:32:16;16.10;70.50
32446;DHT22;18899;50.748;7.102;2023-03-25T13:40:26;16.80;66.50
32446;DHT22;18899;50.748;7.102;2023-03-25T13:45:22;16.80;65.00
32446;DHT22;18899;50.748;7.102;2023-03-25T13:48:05;16.30;63.50
32446;DHT22;18899;50.748;7.102;2023-03-25T13:50:32;16.00;65.00
32446;DHT22;18899;50.748;7.102;2023-03-25T13:53:06;15.60;67.30
32446;DHT22;18899;50.748;7.102;2023-03-25T13:55:41;15.50;67.40
32446;DHT22;18899;50.748;7.102;2023-03-25T14:01:26;15.50;69.90
32446;DHT22;18899;50.748;7.102;2023-03-25T14:04:07;15.30;69.30
32446;DHT22;18899;50.748;7.102;2023-03-25T14:06:59;15.10;71.80
32446;DHT22;18899;50.748;7.102;2023-03-25T14:12:32;15.00;75.00
32446;DHT22;18899;50.748;7.102;2023-03-25T14:15:03;14.80;76.60
32446;DHT22;18899;50.748;7.102;2023-03-25T14:17:30;14.50;77.80
32446;DHT22;18899;50.748;7.102;2023-03-25T14:19:58;14.30;82.30
32446;DHT22;18899;50.748;7.102;2023-03-25T14:22:30;13.80;90.30
32446;DHT22;18899;50.748;7.102;2023-03-25T14:24:56;13.30;99.90
32446;DHT22;18899;50.748;7.102;2023-03-25T14:27:31;12.80;99.90
32446;DHT22;18899;50.748;7.102;2023-03-25T14:30:45;12.20;99.90
32446;DHT22;18899;50.748;7.102;2023-03-25T14:32:46;12.20;99.90
32446;DHT22;18899;50.748;7.102;2023-03-25T14:43:45;12.90;99.90
32446;DHT22;18899;50.748;7.102;2023-03-25T14:46:20;12.90;99.90
32446;DHT22;18899;50.748;7.102;2023-03-25T14:54:17;13.40;99.90
32446;DHT22;18899;50.748;7.102;2023-03-25T14:59:20;13.50;99.90
32446;DHT22;18899;50.748;7.102;2023-03-25T15:01:48;13.50;99.90
32446;DHT22;18899;50.748;7.102;2023-03-25T15:04:21;13.60;99.90
32446;DHT22;18899;50.748;7.102;2023-03-25T15:06:48;13.70;99.90
32446;DHT22;18899;50.748;7.102;2023-03-25T15:09:15;13.70;99.90
32446;DHT22;18899;50.748;7.102;2023-03-25T15:12:03;13.70;99.90
32446;DHT22;18899;50.748;7.102;2023-03-25T15:14:35;13.80;99.90
32446;DHT22;18899;50.748;7.102;2023-03-25T15:17:11;13.90;99.90
32446;DHT22;18899;50.748;7.102;2023-03-25T15:22:30;14.30;99.90
32446;DHT22;18899;50.748;7.102;2023-03-25T15:24:58;14.40;99.90
32446;DHT22;18899;50.748;7.102;2023-03-25T15:27:37;14.40;99.90
32446;DHT22;18899;50.748;7.102;2023-03-25T15:55:58;14.40;99.90
32446;DHT22;18899;50.748;7.102;2023-03-25T15:59:11;14.30;99.90
32446;DHT22;18899;50.748;7.102;2023-03-25T16:03:59;14.50;99.90
32446;DHT22;18899;50.748;7.102;2023-03-25T16:06:26;14.40;99.90
32446;DHT22;18899;50.748;7.102;2023-03-25T16:08:54;14.30;99.90
32446;DHT22;18899;50.748;7.102;2023-03-25T16:11:23;14.10;99.90
32446;DHT22;18899;50.748;7.102;2023-03-25T16:14:10;14.10;99.90
32446;DHT22;18899;50.748;7.102;2023-03-25T16:16:38;14.20;99.90
32446;DHT22;18899;50.748;7.102;2023-03-25T16:19:10;14.20;99.90
32446;DHT22;18899;50.748;7.102;2023-03-25T16:21:37;14.30;99.90
32446;DHT22;18899;50.748;7.102;2023-03-25T16:24:05;14.20;99.90
32446;DHT22;18899;50.748;7.102;2023-03-25T16:26:34;14.30;99.90
32446;DHT22;18899;50.748;7.102;2023-03-25T16:29:29;14.30;99.90
32446;DHT22;18899;50.748;7.102;2023-03-25T16:31:57;14.30;99.90
32446;DHT22;18899;50.748;7.102;2023-03-25T16:34:23;14.40;99.70
32446;DHT22;18899;50.748;7.102;2023-03-25T16:36:50;14.50;98.10
32446;DHT22;18899;50.748;7.102;2023-03-25T16:39:17;14.50;96.50
32446;DHT22;18899;50.748;7.102;2023-03-25T16:41:48;14.40;96.10
32446;DHT22;18899;50.748;7.102;2023-03-25T16:44:16;14.40;95.60
32446;DHT22;18899;50.748;7.102;2023-03-25T16:46:45;14.30;96.60
32446;DHT22;18899;50.748;7.102;2023-03-25T16:49:39;14.30;95.40
32446;DHT22;18899;50.748;7.102;2023-03-25T16:52:16;14.30;95.90
32446;DHT22;18899;50.748;7.102;2023-03-25T16:57:27;14.10;95.70
32446;DHT22;18899;50.748;7.102;2023-03-25T16:59:54;13.80;95.70
32446;DHT22;18899;50.748;7.102;2023-03-25T17:02:37;13.60;97.10
32446;DHT22;18899;50.748;7.102;2023-03-25T17:05:26;13.60;95.90
32446;DHT22;18899;50.748;7.102;2023-03-25T17:08:06;13.50;96.40
32446;DHT22;18899;50.748;7.102;2023-03-25T17:10:58;13.60;95.80
32446;DHT22;18899;50.748;7.102;2023-03-25T17:13:27;13.70;97.50
32446;DHT22;18899;50.748;7.102;2023-03-25T17:15:54;13.70;96.30
32446;DHT22;18899;50.748;7.102;2023-03-25T17:18:25;13.80;96.80
32446;DHT22;18899;50.748;7.102;2023-03-25T17:20:54;13.70;96.00
32446;DHT22;18899;50.748;7.102;2023-03-25T17:25:59;13.60;93.80
32446;DHT22;18899;50.748;7.102;2023-03-25T17:28:31;13.60;93.40
32446;DHT22;18899;50.748;7.102;2023-03-25T17:30:57;13.70;93.60
32446;DHT22;18899;50.748;7.102;2023-03-25T17:33:31;13.60;94.10
32446;DHT22;18899;50.748;7.102;2023-03-25T17:35:59;13.60;94.90
32446;DHT22;18899;50.748;7.102;2023-03-25T17:38:31;13.40;95.40
32446;DHT22;18899;50.748;7.102;2023-03-25T17:41:06;13.40;96.00
32446;DHT22;18899;50.748;7.102;2023-03-25T17:43:34;13.40;97.60
32446;DHT22;18899;50.748;7.102;2023-03-25T17:46:02;13.50;99.70
32446;DHT22;18899;50.748;7.102;2023-03-25T17:48:29;13.40;99.90
32446;DHT22;18899;50.748;7.102;2023-03-25T17:50:56;13.30;99.90
32446;DHT22;18899;50.748;7.102;2023-03-25T17:53:21;13.20;99.90
32446;DHT22;18899;50.748;7.102;2023-03-25T17:55:47;12.90;99.90
32446;DHT22;18899;50.748;7.102;2023-03-25T17:58:14;12.90;99.90
32446;DHT22;18899;50.748;7.102;2023-03-25T18:00:41;12.90;99.90
32446;DHT22;18899;50.748;7.102;2023-03-25T18:03:15;12.90;99.90
32446;DHT22;18899;50.748;7.102;2023-03-25T18:05:41;12.70;99.90
32446;DHT22;18899;50.748;7.102;2023-03-25T18:08:11;12.60;99.90
32446;DHT22;18899;50.748;7.102;2023-03-25T18:10:38;12.40;99.90
32446;DHT22;18899;50.748;7.102;2023-03-25T18:13:03;12.40;99.90
32446;DHT22;18899;50.748;7.102;2023-03-25T18:15:30;12.30;99.90
32446;DHT22;18899;50.748;7.102;2023-03-25T18:17:56;12.30;99.90
32446;DHT22;18899;50.748;7.102;2023-03-25T18:20:27;12.40;99.90
32446;DHT22;18899;50.748;7.102;2023-03-25T18:22:53;12.30;99.90
32446;DHT22;18899;50.748;7.102;2023-03-25T18:25:18;12.40;99.90
32446;DHT22;18899;50.748;7.102;2023-03-25T18:27:49;12.50;99.90
32446;DHT22;18899;50.748;7.102;2023-03-25T18:30:27;12.50;99.90
32446;DHT22;18899;50.748;7.102;2023-03-25T18:32:53;12.70;99.90
32446;DHT22;18899;50.748;7.102;2023-03-25T18:35:20;12.60;99.90
32446;DHT22;18899;50.748;7.102;2023-03-25T18:37:46;12.70;99.90